Terminal Aerodrome Forecast
Issued by NWS Sterling, VA

Current Version | Previous Version | Graphics & Text | Print | Product List | Glossary On
Versions: 1 2 3 4 5 6 7 8 9 10 11 12 13 14 15 16 17 18 19 20 21 22 23 24
000
FTUS41 KLWX 231740
TAFIAD
TAF
KIAD 231740Z 2318/2424 07006KT P6SM SCT025 BKN200
     FM240500 06004KT P6SM SCT008 OVC030
     FM240600 06004KT P6SM -RA SCT008 OVC025
     FM241000 03006KT P6SM -RA SCT008 OVC015
     FM241900 05009KT 1 1/2SM -RA OVC008=

USA.gov is the U.S. government's official web portal to all federal, state and local government web resources and services.